Latest Weather Observations for Armidale Airport

IDN60801

Issued at 2:02 pm EST Thursday 3 September 2015 (issued every 30 minutes, with the page automatically refreshed every 10 minutes)

About weather observations | Map of weather stations | Latest weather observations for NSW | Other Formats
Station Details ID: 056238 Name: ARMIDALE AIRPORT AWS Lat: -30.53 Lon: 151.62 Height: 1079.0 m
Data from the previous 72 hours. | See also: Recent months at Armidale Airport
Date/Time
EST
Temp
°C
App
Temp
°C
Dew
Point
Rel
Hum
%
Delta-T
°C
Wind Press
QNH
hPa
Press
MSL
hPa
Rain
since 9 am
mm
Dir
 
Spd
km/h
Gust
km/h
Spd
kts
Gust
kts
03/02:00pm 5.1 -2.1 4.8 98 0.1 W 32 43 17 23 1010.4 1008.2 4.0
03/01:39pm 5.3 -2.1 5.0 98 0.1 W 33 52 18 28 1010.0 1007.8 2.8
03/01:36pm 5.7 -1.0 5.4 98 0.1 W 30 39 16 21 1010.0 1007.8 2.6
03/01:30pm 6.0 -0.7 5.7 98 0.1 W 30 39 16 21 1009.8 1007.6 2.4
03/01:26pm 5.8 -1.3 5.5 98 0.1 W 32 41 17 22 1009.9 1007.7 2.4
03/01:25pm 5.8 -1.3 5.5 98 0.1 W 32 41 17 22 1009.9 1007.7 2.4
03/01:02pm 6.2 -0.6 5.2 93 0.5 WNW 30 48 16 26 1010.0 1007.8 1.2
03/01:00pm 6.5 0.0 4.8 89 0.8 WNW 28 39 15 21 1009.8 1007.6 0.8
03/12:47pm 7.3 2.5 4.9 85 1.1 NW 19 24 10 13 1009.4 1007.2 0.0
03/12:32pm 6.8 -1.1 4.5 85 1.1 NNW 35 50 19 27 1009.6 1007.4 0.0
03/12:30pm 6.9 -1.5 3.7 80 1.5 NNW 37 50 20 27 1009.5 1007.3 0.0
03/12:00pm 10.7 3.2 3.3 60 3.5 NW 32 37 17 20 1009.7 1007.5 0.0
03/11:30am 10.8 3.4 2.1 55 4.0 WNW 30 43 16 23 1010.4 1008.2 0.0
03/11:00am 11.7 4.2 3.7 58 3.8 WNW 32 44 17 24 1010.8 1008.6 0.0
03/10:30am 10.2 3.4 3.3 62 3.2 WNW 28 35 15 19 1010.9 1008.7 0.0
03/10:00am 10.8 3.9 4.7 66 2.9 WNW 30 39 16 21 1011.3 1009.1 0.0
03/09:30am 9.7 2.8 4.7 71 2.4 WNW 30 41 16 22 1011.7 1009.5 0.0
03/09:00am 10.1 2.8 4.7 69 2.6 W 32 43 17 23 1011.5 1009.3 4.8
03/08:30am 9.6 3.0 4.4 70 2.5 W 28 35 15 19 1010.9 1008.7 4.8
03/08:00am 9.1 3.1 5.3 77 1.8 WNW 26 35 14 19 1010.7 1008.5 4.8
03/07:30am 8.6 3.2 6.2 85 1.2 W 24 33 13 18 1010.5 1008.3 4.8
03/07:00am 7.5 2.2 6.6 94 0.4 W 24 33 13 18 1010.3 1008.1 4.8
03/06:48am 7.7 1.8 6.0 89 0.8 W 26 35 14 19 1010.1 1007.9 4.8
03/06:30am 8.3 0.7 5.8 84 1.2 W 35 48 19 26 1009.8 1007.6 4.8
03/06:27am 8.9 2.3 8.6 98 0.2 W 33 48 18 26 1009.7 1007.5 4.8
03/06:00am 9.9 2.9 9.8 99 0.1 WNW 37 54 20 29 1009.3 1007.0 4.8
03/05:49am 10.1 3.1 9.9 99 0.1 WNW 37 56 20 30 1009.3 1007.0 4.8
03/05:30am 10.4 4.2 10.2 99 0.1 WNW 33 48 18 26 1009.0 1006.8 4.4
03/05:06am 10.5 4.6 10.3 99 0.1 WNW 32 50 17 27 1008.7 1006.5 4.4
03/05:00am 10.5 4.3 10.2 98 0.2 WNW 33 46 18 25 1008.7 1006.5 4.4
03/04:30am 10.9 6.2 10.6 98 0.2 NW 26 41 14 22 1008.7 1006.5 4.2
03/04:15am 10.6 6.9 10.3 98 0.2 NW 20 26 11 14 1008.7 1006.5 4.0
03/04:00am 10.8 6.4 10.5 98 0.2 NW 24 32 13 17 1008.6 1006.4 3.6
03/03:30am 10.0 6.4 9.7 98 0.2 NNW 19 24 10 13 1008.5 1006.2 3.6
03/03:00am 9.8 5.9 9.5 98 0.2 NNW 20 28 11 15 1009.0 1006.8 3.6
03/02:30am 8.9 5.4 8.8 99 0.1 NNW 17 24 9 13 1009.9 1007.7 3.6
03/02:19am 9.0 5.0 8.9 99 0.1 WNW 20 32 11 17 1010.1 1007.9 3.6
03/02:00am 9.6 4.1 9.3 98 0.2 W 28 43 15 23 1010.9 1008.7 3.0
03/01:55am 9.8 3.4 9.5 98 0.2 WSW 33 61 18 33 1010.9 1008.7 2.6
03/01:51am 9.4 2.9 9.1 98 0.2 WSW 33 61 18 33 1010.1 1007.9 2.0
03/01:50am 9.3 3.0 9.0 98 0.2 WSW 32 61 17 33 1010.7 1008.5 2.0
03/01:48am 9.8 4.4 9.5 98 0.2 WSW 28 56 15 30 1010.7 1008.5 0.8
03/01:30am 10.9 7.2 8.1 83 1.4 NNW 17 30 9 16 1010.3 1008.1 0.6
03/01:00am 10.5 3.7 7.7 83 1.4 N 33 52 18 28 1010.6 1008.4 0.0
03/12:51am 11.5 6.2 7.0 74 2.3 N 24 52 13 28 1010.8 1008.6 0.0
03/12:50am 11.5 6.6 6.8 73 2.4 N 22 41 12 22 1010.9 1008.7 0.0
03/12:30am 10.6 6.4 5.8 72 2.4 NNE 17 28 9 15 1010.9 1008.7 0.0
03/12:00am 11.6 5.0 5.9 68 2.8 N 30 41 16 22 1011.7 1009.5 0.0
 
Date/Time
EST
Temp
°C
App
Temp
°C
Dew
Point
Rel
Hum
%
Delta-T
°C
Wind Press
QNH
hPa
Press
MSL
hPa
Rain
since 9 am
mm
Dir
 
Spd
km/h
Gust
km/h
Spd
kts
Gust
kts
02/11:30pm 11.9 3.5 5.5 65 3.2 N 39 52 21 28 1012.6 1010.4 0.0
02/11:00pm 12.5 4.8 5.2 61 3.6 N 35 46 19 25 1013.3 1011.1 0.0
02/10:30pm 13.7 6.0 3.2 49 5.0 N 33 44 18 24 1013.9 1011.8 0.0
02/10:00pm 13.6 7.1 2.5 47 5.2 N 26 39 14 21 1013.9 1011.8 0.0
02/09:30pm 13.4 7.2 2.0 46 5.3 N 24 35 13 19 1014.4 1012.3 0.0
02/09:00pm 12.8 7.3 2.1 48 4.9 N 20 28 11 15 1014.7 1012.6 0.0
02/08:30pm 12.6 7.6 1.3 46 5.1 N 17 26 9 14 1014.8 1012.7 0.0
02/08:00pm 12.3 7.6 1.0 46 5.1 N 15 20 8 11 1014.8 1012.7 0.0
02/07:30pm 12.3 7.9 0.4 44 5.3 N 13 19 7 10 1015.3 1013.2 0.0
02/07:00pm 11.8 7.1 0.6 46 5.0 N 15 17 8 9 1015.5 1013.4 0.0
02/06:30pm 12.1 7.3 0.5 45 5.1 N 15 19 8 10 1015.5 1013.4 0.0
02/06:00pm 12.9 8.6 1.3 45 5.3 N 13 17 7 9 1015.5 1013.4 0.0
02/05:30pm 13.4 9.1 0.8 42 5.7 N 13 15 7 8 1015.1 1013.1 0.0
02/05:00pm 14.0 8.9 0.6 40 6.1 NW 17 20 9 11 1015.4 1013.3 0.0
02/04:30pm 14.6 8.8 -0.3 36 6.6 NW 20 30 11 16 1015.3 1013.2 0.0
02/04:00pm 15.7 10.5 -0.1 34 7.1 WNW 17 20 9 11 1015.0 1012.9 0.0
02/03:30pm 15.2 9.6 0.2 36 6.8 WNW 19 26 10 14 1015.3 1013.2 0.0
02/03:00pm 15.3 9.0 -1.3 32 7.3 WNW 22 30 12 16 1015.5 1013.4 0.0
02/02:30pm 16.5 9.7 -2.0 28 8.1 NW 24 32 13 17 1015.8 1013.7 0.0
02/02:00pm 15.9 10.7 -3.1 27 8.1 NW 15 26 8 14 1015.8 1013.7 0.0
02/01:30pm 16.4 10.8 -3.1 26 8.3 WNW 17 24 9 13 1016.1 1014.1 0.0
02/01:00pm 15.8 9.9 -0.8 32 7.4 NW 20 32 11 17 1016.8 1014.8 0.0
02/12:30pm 15.0 10.0 -1.1 33 7.1 NW 15 24 8 13 1017.1 1015.1 0.0
02/12:00pm 13.8 7.8 -3.0 31 7.0 W 19 22 10 12 1017.9 1015.9 0.0
02/11:30am 14.0 8.8 -2.8 31 7.1 NW 15 20 8 11 1018.4 1016.4 0.0
02/11:00am 12.2 7.5 -1.7 38 5.9 NW 13 17 7 9 1018.9 1016.9 0.0
02/10:30am 10.6 5.9 -1.8 42 5.1 NW 13 15 7 8 1019.3 1017.3 0.0
02/10:00am 9.6 5.8 -0.9 48 4.4 NW 9 11 5 6 1019.4 1017.4 0.0
02/09:30am 9.2 5.8 1.9 60 3.3 NNW 9 13 5 7 1019.6 1017.6 0.0
02/09:00am 8.9 4.7 1.6 60 3.2 NW 13 17 7 9 1019.8 1017.8 0.0
02/08:30am 7.3 4.4 2.8 73 2.0 W 7 11 4 6 1019.8 1017.8 0.0
02/08:00am 5.3 2.4 2.8 84 1.1 W 7 9 4 5 1019.7 1017.7 0.0
02/07:30am 3.7 0.8 2.7 93 0.4 NNW 7 11 4 6 1019.7 1017.7 0.0
02/07:00am 3.6 0.8 2.0 89 0.7 ENE 6 7 3 4 1018.9 1016.9 0.0
02/06:30am 3.2 0.9 0.6 83 1.1 NNW 2 6 1 3 1018.7 1016.7 0.0
02/06:00am 2.1 -1.2 -0.2 85 0.9 NW 7 9 4 5 1018.5 1016.5 0.0
02/05:30am 1.8 -2.0 -0.8 83 1.0 NW 9 11 5 6 1018.4 1016.4 0.0
02/05:00am 2.8 -1.0 -0.5 79 1.3 WNW 9 11 5 6 1018.3 1016.2 0.0
02/04:30am 1.8 -1.4 -0.8 83 1.0 NW 6 7 3 4 1017.8 1015.8 0.0
02/04:00am 2.1 0.0 -0.8 81 1.1 CALM 0 0 0 0 1017.7 1015.7 0.0
02/03:30am 2.3 0.2 -0.8 80 1.2 CALM 0 0 0 0 1017.6 1015.6 0.0
02/03:00am 2.0 -0.2 -1.2 79 1.2 CALM 0 0 0 0 1017.8 1015.8 0.0
02/02:30am 2.5 0.5 -0.4 81 1.1 CALM 0 6 0 3 1018.0 1016.0 0.0
02/02:00am 2.0 -1.9 -1.6 77 1.4 WNW 9 11 5 6 1018.4 1016.4 0.0
02/01:30am 1.7 -1.9 -1.9 77 1.4 NW 7 9 4 5 1018.1 1016.1 0.0
02/01:00am 1.3 -2.4 -3.2 72 1.7 NNW 7 9 4 5 1018.0 1016.0 0.0
02/12:30am 2.7 -0.7 -2.0 71 1.8 W 6 7 3 4 1017.8 1015.8 0.0
02/12:00am 2.5 -0.9 -1.8 73 1.6 NW 6 7 3 4 1017.7 1015.7 0.0
 
Date/Time
EST
Temp
°C
App
Temp
°C
Dew
Point
Rel
Hum
%
Delta-T
°C
Wind Press
QNH
hPa
Press
MSL
hPa
Rain
since 9 am
mm
Dir
 
Spd
km/h
Gust
km/h
Spd
kts
Gust
kts
01/11:30pm 2.0 -1.6 -2.0 75 1.5 NW 7 9 4 5 1017.7 1015.7 0.0
01/11:00pm 2.0 -2.4 -2.7 71 1.7 NW 11 11 6 6 1017.6 1015.6 0.0
01/10:30pm 2.0 -2.1 -3.3 68 1.9 WNW 9 11 5 6 1017.8 1015.8 0.0
01/10:00pm 3.7 -0.4 -2.7 63 2.4 W 9 11 5 6 1017.8 1015.8 0.0
01/09:30pm 3.2 -0.9 -2.7 65 2.2 WNW 9 9 5 5 1017.8 1015.8 0.0
01/09:00pm 2.5 -1.2 -3.2 66 2.1 WNW 7 9 4 5 1017.8 1015.8 0.0
01/08:30pm 3.2 -0.9 -3.1 63 2.3 WSW 9 11 5 6 1017.6 1015.6 0.0
01/08:00pm 3.9 -0.9 -2.5 63 2.4 SW 13 15 7 8 1017.4 1015.3 0.0
01/07:30pm 4.2 -0.3 -3.1 59 2.7 SW 11 13 6 7 1017.3 1015.2 0.0
01/07:00pm 4.9 0.9 -2.4 59 2.8 SW 9 13 5 7 1016.9 1014.9 0.0
01/06:30pm 5.1 0.3 -2.2 59 2.8 WSW 13 15 7 8 1016.8 1014.8 0.0
01/06:00pm 6.9 2.4 -3.6 47 4.0 WSW 11 11 6 6 1016.5 1014.4 0.0
01/05:30pm 8.5 3.2 -3.3 43 4.6 W 15 19 8 10 1016.3 1014.2 0.0
01/05:00pm 10.2 4.0 -3.5 38 5.4 W 20 26 11 14 1016.0 1014.0 0.0
01/04:30pm 10.9 4.1 -5.5 31 6.3 W 22 30 12 16 1015.7 1013.6 0.0
01/04:00pm 11.5 4.3 -5.0 31 6.4 W 24 32 13 17 1015.6 1013.5 0.0
01/03:30pm 11.9 4.3 -5.1 30 6.6 WNW 26 33 14 18 1015.7 1013.6 0.0
01/03:00pm 11.7 4.2 -4.4 32 6.4 WSW 26 33 14 18 1015.7 1013.6 0.0
01/02:30pm 12.4 5.5 -3.0 34 6.3 W 24 35 13 19 1015.6 1013.5 0.0
01/02:00pm 12.2 5.5 -4.0 32 6.5 W 22 35 12 19 1015.7 1013.6 0.0
01/01:30pm 12.2 4.9 -2.8 35 6.2 W 26 37 14 20 1015.6 1013.5 0.0
01/01:00pm 12.2 4.9 -3.2 34 6.3 WNW 26 35 14 19 1015.9 1013.9 0.0
01/12:30pm 11.5 3.4 -3.0 36 5.9 W 30 39 16 21 1016.3 1014.2 0.0
01/12:00pm 10.8 2.7 -2.9 38 5.6 W 30 39 16 21 1016.5 1014.4 0.0
01/11:30am 10.4 2.3 -2.9 39 5.4 W 30 41 16 22 1016.9 1014.9 0.0
01/11:00am 9.9 3.4 0.5 52 4.1 W 24 35 13 19 1017.3 1015.2 0.0
01/10:30am 9.6 3.7 2.0 59 3.4 WNW 22 32 12 17 1017.4 1015.3 0.0
01/10:00am 8.1 2.6 1.9 65 2.7 WNW 20 26 11 14 1017.4 1015.3 0.0
01/09:30am 7.2 1.0 2.3 71 2.2 WNW 24 30 13 16 1017.3 1016.9 0.0
01/09:00am 6.6 0.6 3.4 80 1.4 WNW 24 28 13 15 1017.3 1016.9 0.0
01/08:30am 5.6 0.1 3.9 89 0.8 WNW 22 30 12 16 1017.1 1016.8 0.0
01/08:00am 4.9 -0.1 4.6 98 0.1 WNW 20 28 11 15 1016.9 1016.5 0.0
01/07:30am 4.1 -0.4 4.0 99 0.0 WNW 17 20 9 11 1016.5 1016.1 0.0
01/07:00am 2.9 -1.5 2.9 100 0.0 WNW 15 19 8 10 1016.4 1016.0 0.0
01/06:43am 2.1 -2.8 2.1 100 0.0 WNW 17 19 9 10 1016.0 1015.6 0.0
01/06:32am 1.6 -2.6 1.6 100 0.0 WNW 13 15 7 8 1015.9 1015.5 0.0
01/06:30am 1.5 -2.7 1.5 100 0.0 WNW 13 15 7 8 1015.9 1015.5 0.0
01/06:00am 2.3 -1.8 2.3 100 0.0 W 13 17 7 9 1015.8 1015.4 0.0
01/05:30am 2.7 -1.7 2.7 100 0.0 W 15 17 8 9 1015.5 1015.1 0.0
01/05:00am 2.9 -1.8 2.9 100 0.0 WNW 17 20 9 11 1015.4 1014.9 0.0
01/04:34am 3.2 -1.5 3.1 99 0.0 W 17 22 9 12 1015.5 1015.1 0.0
01/04:30am 3.1 -1.6 3.0 99 0.0 W 17 22 9 12 1015.4 1014.9 0.0
01/04:25am 3.1 -1.6 3.0 99 0.0 W 17 20 9 11 1015.4 1014.9 0.0
01/04:10am 3.0 -1.7 2.9 99 0.0 WNW 17 22 9 12 1015.4 1014.9 0.0
01/04:00am 3.0 -1.7 2.9 99 0.0 W 17 19 9 10 1015.5 1015.1 0.0
01/03:30am 2.4 -2.1 2.3 99 0.0 WNW 15 17 8 9 1015.5 1015.1 0.0
01/03:00am 3.4 -1.3 3.3 99 0.0 WNW 17 22 9 12 1015.5 1015.1 0.0
01/02:41am 2.6 -1.9 2.3 98 0.1 WNW 15 17 8 9 1015.7 1015.3 0.0
01/02:30am 2.2 -2.3 1.9 98 0.1 W 15 17 8 9 1015.7 1015.3 0.0
01/02:00am 2.7 -2.1 2.4 98 0.1 WNW 17 19 9 10 1015.9 1015.5 0.0
01/01:30am 2.8 -2.0 2.5 98 0.1 W 17 19 9 10 1016.0 1015.6 0.0
01/01:00am 2.9 -1.1 2.6 98 0.1 WNW 13 15 7 8 1016.6 1016.2 0.0
01/12:30am 4.4 0.6 4.1 98 0.1 WNW 13 17 7 9 1016.8 1016.4 0.0
01/12:00am 3.4 -0.2 3.1 98 0.1 WNW 11 13 6 7 1017.0 1016.7 0.0
 
Date/Time
EST
Temp
°C
App
Temp
°C
Dew
Point
Rel
Hum
%
Delta-T
°C
Wind Press
QNH
hPa
Press
MSL
hPa
Rain
since 9 am
mm
Dir
 
Spd
km/h
Gust
km/h
Spd
kts
Gust
kts
31/11:30pm 3.9 0.6 2.6 91 0.6 WNW 9 11 5 6 1017.0 1016.7 0.0
31/11:00pm 4.3 1.1 3.3 93 0.4 NW 9 13 5 7 1017.0 1016.7 0.0
31/10:30pm 3.8 0.6 2.9 94 0.4 NW 9 11 5 6 1016.9 1016.5 0.0
31/10:00pm 2.8 -0.2 1.9 94 0.4 WNW 7 9 4 5 1017.3 1016.9 0.0
31/09:30pm 3.1 0.0 1.6 90 0.6 WNW 7 9 4 5 1017.1 1016.8 0.0
31/09:00pm 3.6 0.2 2.0 89 0.7 W 9 11 5 6 1017.3 1016.9 0.0
31/08:30pm 3.9 0.5 2.1 88 0.8 W 9 11 5 6 1016.9 1016.5 0.0
31/08:00pm 4.4 0.6 1.9 84 1.1 WSW 11 13 6 7 1016.8 1016.4 0.0
31/07:30pm 4.7 0.8 1.4 79 1.4 WSW 11 13 6 7 1016.5 1016.1 0.0
31/07:00pm 6.9 1.8 2.8 75 1.8 WSW 19 24 10 13 1016.5 1016.1 0.0
31/06:30pm 7.7 2.5 3.4 74 2.0 WSW 20 28 11 15 1016.1 1015.7 0.0
31/06:00pm 7.7 3.2 2.4 69 2.4 W 15 20 8 11 1015.8 1015.4 0.0
31/05:30pm 8.7 4.2 2.3 64 2.9 W 15 17 8 9 1015.5 1015.1 0.0
31/05:00pm 10.4 5.1 1.8 55 3.9 WSW 19 22 10 12 1015.1 1014.7 0.0
31/04:30pm 11.0 5.3 2.6 56 3.9 WSW 22 28 12 15 1014.9 1014.5 0.0
31/04:00pm 12.3 6.6 3.0 53 4.4 WSW 22 33 12 18 1014.6 1014.1 0.0
31/03:30pm 12.6 6.8 2.2 49 4.8 W 22 30 12 16 1014.5 1014.0 0.0
31/03:00pm 12.3 7.1 2.5 51 4.5 W 19 24 10 13 1014.5 1014.0 0.0
31/02:30pm 12.7 7.2 2.0 48 4.9 W 20 30 11 16 1014.7 1014.3 0.0

Other Formats:

Comma delimited format used in spreadsheet applications
http://www.bom.gov.au/fwo/IDN60801/IDN60801.95773.axf

JavaScript Object Notation format (JSON) in row-major order
http://www.bom.gov.au/fwo/IDN60801/IDN60801.95773.json